createdAt,value
2023-11-27T00:01:35.917Z,1.60
2023-11-27T00:04:02.394Z,1.67
2023-11-27T00:06:28.783Z,1.80
2023-11-27T00:08:55.129Z,2.03
2023-11-27T00:11:21.487Z,1.85
2023-11-27T00:13:47.844Z,1.73
2023-11-27T00:16:15.801Z,1.70
2023-11-27T00:18:42.300Z,1.63
2023-11-27T00:21:08.864Z,1.40
2023-11-27T00:23:35.233Z,1.45
2023-11-27T00:26:01.691Z,1.67
2023-11-27T00:28:28.089Z,1.92
2023-11-27T00:30:54.633Z,1.42
2023-11-27T00:33:21.095Z,1.30
2023-11-27T00:35:47.505Z,1.25
2023-11-27T00:38:13.851Z,1.30
2023-11-27T00:40:40.273Z,1.45
2023-11-27T00:43:06.712Z,1.33
2023-11-27T00:45:33.119Z,1.38
2023-11-27T00:47:59.506Z,1.52
2023-11-27T00:50:26.427Z,1.30
2023-11-27T00:52:52.798Z,1.45
2023-11-27T00:55:19.192Z,1.20
2023-11-27T00:57:45.686Z,1.65
2023-11-27T01:00:12.579Z,1.45
2023-11-27T01:02:39.091Z,1.40
2023-11-27T01:05:07.912Z,1.63
2023-11-27T01:07:34.362Z,1.40
2023-11-27T01:10:00.790Z,1.50
2023-11-27T01:12:27.176Z,1.30
2023-11-27T01:14:53.549Z,1.23
2023-11-27T01:17:19.904Z,1.42
2023-11-27T01:19:46.274Z,1.40
2023-11-27T01:22:12.735Z,1.50
2023-11-27T01:24:39.122Z,1.23
2023-11-27T01:27:05.524Z,1.38
2023-11-27T01:29:31.915Z,1.20
2023-11-27T01:31:58.313Z,1.55
2023-11-27T01:34:24.748Z,1.33
2023-11-27T01:36:51.196Z,1.25
2023-11-27T01:39:17.587Z,1.52
2023-11-27T01:41:44.012Z,1.13
2023-11-27T01:44:10.389Z,1.58
2023-11-27T01:46:45.283Z,1.63
2023-11-27T01:49:11.958Z,1.80
2023-11-27T01:51:40.874Z,1.33
2023-11-27T01:54:07.330Z,1.20
2023-11-27T01:56:34.573Z,1.35
2023-11-27T01:59:01.640Z,1.27
2023-11-27T02:01:29.019Z,1.30
2023-11-27T02:03:55.592Z,1.55
2023-11-27T02:06:22.015Z,1.35
2023-11-27T02:08:48.445Z,1.60
2023-11-27T02:11:14.797Z,1.63
2023-11-27T02:13:41.174Z,1.40
2023-11-27T02:16:08.114Z,1.35
2023-11-27T02:18:34.550Z,1.95
2023-11-27T02:21:06.965Z,1.40
2023-11-27T02:23:33.362Z,1.20
2023-11-27T02:25:59.757Z,1.40
2023-11-27T02:28:26.128Z,1.35
2023-11-27T02:30:52.751Z,1.50
2023-11-27T02:33:19.169Z,1.30
2023-11-27T02:35:45.590Z,1.52
2023-11-27T02:38:12.045Z,1.20
2023-11-27T02:40:38.412Z,1.50
2023-11-27T02:43:04.894Z,1.42
2023-11-27T02:45:31.271Z,1.30
2023-11-27T02:47:57.694Z,1.20
2023-11-27T02:50:24.055Z,1.33
2023-11-27T02:52:50.520Z,1.35
2023-11-27T02:55:17.091Z,1.52
2023-11-27T02:57:43.629Z,1.35
2023-11-27T03:00:10.685Z,1.10
2023-11-27T03:02:37.132Z,1.30
2023-11-27T03:05:03.661Z,1.50
2023-11-27T03:07:30.033Z,1.63
2023-11-27T03:09:56.554Z,1.42
2023-11-27T03:12:22.913Z,1.50
2023-11-27T03:14:49.280Z,1.52
2023-11-27T03:17:15.760Z,1.50
2023-11-27T03:19:47.744Z,1.33
2023-11-27T03:22:15.878Z,1.42
2023-11-27T03:24:42.326Z,1.40
2023-11-27T03:27:08.699Z,1.60
2023-11-27T03:29:35.105Z,1.45
2023-11-27T03:32:01.581Z,1.83
2023-11-27T03:34:27.951Z,1.65
2023-11-27T03:36:54.320Z,1.73
2023-11-27T03:39:20.850Z,1.90
2023-11-27T03:41:47.208Z,1.65
2023-11-27T03:44:14.251Z,1.40
2023-11-27T03:46:40.787Z,2.33
2023-11-27T03:49:07.316Z,1.70
2023-11-27T03:51:33.718Z,2.00
2023-11-27T03:54:00.102Z,1.98
2023-11-27T03:56:26.488Z,1.85
2023-11-27T03:58:52.849Z,1.50
2023-11-27T04:01:19.305Z,1.50
2023-11-27T04:03:45.810Z,1.75
2023-11-27T04:06:22.593Z,1.77
2023-11-27T04:08:48.956Z,1.80
2023-11-27T04:11:15.581Z,2.13
2023-11-27T04:13:41.929Z,1.58
2023-11-27T04:16:09.258Z,1.92
2023-11-27T04:18:36.464Z,2.25
2023-11-27T04:21:03.195Z,1.88
2023-11-27T04:23:30.029Z,2.17
2023-11-27T04:25:56.423Z,2.03
2023-11-27T04:28:22.842Z,1.90
2023-11-27T04:30:49.430Z,1.38
2023-11-27T04:33:15.826Z,1.85
2023-11-27T04:35:42.203Z,1.83
2023-11-27T04:38:12.405Z,1.60
2023-11-27T04:43:05.157Z,2.35
2023-11-27T04:45:31.561Z,2.30
2023-11-27T04:47:58.032Z,2.22
2023-11-27T04:50:24.418Z,2.13
2023-11-27T04:52:51.046Z,2.05
2023-11-27T04:55:17.595Z,2.13
2023-11-27T04:57:43.995Z,2.58
2023-11-27T05:00:11.085Z,1.85
2023-11-27T05:02:37.527Z,1.90
2023-11-27T05:05:04.126Z,1.83
2023-11-27T05:07:31.535Z,2.67
2023-11-27T05:09:57.914Z,2.30
2023-11-27T05:12:30.442Z,2.28
2023-11-27T05:14:59.782Z,1.90
2023-11-27T05:17:26.198Z,2.75
2023-11-27T05:19:52.555Z,2.08
2023-11-27T05:22:18.950Z,2.33
2023-11-27T05:24:45.407Z,2.38
2023-11-27T05:27:11.783Z,3.10
2023-11-27T05:29:38.167Z,2.78
2023-11-27T05:32:04.748Z,2.60
2023-11-27T05:34:31.146Z,1.75
2023-11-27T05:36:57.529Z,2.67
2023-11-27T05:39:23.913Z,2.67
2023-11-27T05:41:50.357Z,2.22
2023-11-27T05:44:18.550Z,3.05
2023-11-27T05:46:45.379Z,2.60
2023-11-27T05:49:11.883Z,1.83
2023-11-27T05:51:38.377Z,3.20
2023-11-27T05:54:05.107Z,3.25
2023-11-27T05:56:31.498Z,3.13
2023-11-27T05:58:57.878Z,2.35
2023-11-27T06:01:24.292Z,2.95
2023-11-27T06:03:50.791Z,2.90
2023-11-27T06:06:18.802Z,2.72
2023-11-27T06:08:46.514Z,2.58
2023-11-27T06:11:12.874Z,2.25
2023-11-27T06:13:39.291Z,2.83
2023-11-27T06:16:06.201Z,2.63
2023-11-27T06:18:32.594Z,3.28
2023-11-27T06:20:58.962Z,4.28
2023-11-27T06:23:25.330Z,3.17
2023-11-27T06:25:51.705Z,2.90
2023-11-27T06:28:18.113Z,3.13
2023-11-27T06:30:44.573Z,2.65
2023-11-27T06:33:11.017Z,3.70
2023-11-27T06:35:37.464Z,3.33
2023-11-27T06:38:03.936Z,2.47
2023-11-27T06:40:38.145Z,3.03
2023-11-27T06:43:11.981Z,2.83
2023-11-27T06:45:38.396Z,3.20
2023-11-27T06:48:04.898Z,3.08
2023-11-27T06:50:31.339Z,3.30
2023-11-27T06:52:57.731Z,2.78
2023-11-27T06:55:24.136Z,3.33
2023-11-27T06:57:50.563Z,3.08
2023-11-27T07:00:17.325Z,3.13
2023-11-27T07:02:43.844Z,3.60
2023-11-27T07:05:10.313Z,2.45
2023-11-27T07:07:36.691Z,4.05
2023-11-27T07:10:03.452Z,4.45
2023-11-27T07:12:29.861Z,3.47
2023-11-27T07:14:56.286Z,3.13
2023-11-27T07:17:22.765Z,3.53
2023-11-27T07:19:49.133Z,3.00
2023-11-27T07:22:15.551Z,3.65
2023-11-27T07:24:41.911Z,3.00
2023-11-27T07:27:08.283Z,3.70
2023-11-27T07:29:34.648Z,3.50
2023-11-27T07:32:01.085Z,3.70
2023-11-27T07:34:27.542Z,2.50
2023-11-27T07:36:54.238Z,2.90
2023-11-27T07:39:21.114Z,3.15
2023-11-27T07:41:47.507Z,2.53
2023-11-27T07:44:14.122Z,3.20
2023-11-27T07:46:40.767Z,2.58
2023-11-27T07:49:07.294Z,2.78
2023-11-27T07:51:33.696Z,3.13
2023-11-27T07:54:00.084Z,2.90
2023-11-27T07:56:30.043Z,3.38
2023-11-27T07:58:57.053Z,2.28
2023-11-27T08:01:24.298Z,2.58
2023-11-27T08:03:50.852Z,3.33
2023-11-27T08:06:18.749Z,2.70
2023-11-27T08:08:45.332Z,2.90
2023-11-27T08:11:11.755Z,3.65
2023-11-27T08:13:42.502Z,3.20
2023-11-27T08:16:09.410Z,3.33
2023-11-27T08:18:35.858Z,2.65
2023-11-27T08:21:02.229Z,2.17
2023-11-27T08:23:28.600Z,3.17
2023-11-27T08:25:54.992Z,2.58
2023-11-27T08:28:21.610Z,3.83
2023-11-27T08:30:48.252Z,3.90
2023-11-27T08:33:14.677Z,4.00
2023-11-27T08:35:43.071Z,4.90
2023-11-27T08:38:09.481Z,2.90
2023-11-27T08:40:35.966Z,3.00
2023-11-27T08:43:02.398Z,2.58
2023-11-27T08:45:28.945Z,2.90
2023-11-27T08:47:55.410Z,2.70
2023-11-27T08:50:27.002Z,4.28
2023-11-27T08:52:54.693Z,3.38
2023-11-27T08:55:21.129Z,3.08
2023-11-27T08:57:47.530Z,3.72
2023-11-27T09:00:17.472Z,2.67
2023-11-27T09:02:43.994Z,3.17
2023-11-27T09:05:10.519Z,3.60
2023-11-27T09:07:37.048Z,3.70
2023-11-27T09:10:03.730Z,3.20
2023-11-27T09:12:30.411Z,2.90
2023-11-27T09:14:56.771Z,2.33
2023-11-27T09:17:23.253Z,3.08
2023-11-27T09:19:49.670Z,2.63
2023-11-27T09:22:17.540Z,3.33
2023-11-27T09:24:43.950Z,3.08
2023-11-27T09:27:10.340Z,2.65
2023-11-27T09:29:36.705Z,2.50
2023-11-27T09:32:03.300Z,3.30
2023-11-27T09:34:29.958Z,2.60
2023-11-27T09:37:02.806Z,2.03
2023-11-27T09:39:31.726Z,3.38
2023-11-27T09:41:58.452Z,2.95
2023-11-27T09:44:25.240Z,2.72
2023-11-27T09:46:51.674Z,4.32
2023-11-27T09:49:22.771Z,3.08
2023-11-27T09:51:51.498Z,2.95
2023-11-27T09:54:23.660Z,4.03
2023-11-27T09:56:51.388Z,3.38
2023-11-27T09:59:20.444Z,2.83
2023-11-27T10:01:48.624Z,3.35
2023-11-27T10:04:15.424Z,2.65
2023-11-27T10:06:41.891Z,3.25
2023-11-27T10:09:08.310Z,3.00
2023-11-27T10:11:36.124Z,2.38
2023-11-27T10:14:22.515Z,3.40
2023-11-27T10:16:52.760Z,2.05
2023-11-27T10:19:19.314Z,2.97
2023-11-27T10:21:46.305Z,2.60
2023-11-27T10:24:12.887Z,2.13
2023-11-27T10:26:39.323Z,3.65
2023-11-27T10:29:05.687Z,2.42
2023-11-27T10:31:32.135Z,2.00
2023-11-27T10:33:58.741Z,2.92
2023-11-27T10:36:25.289Z,3.05
2023-11-27T10:39:12.146Z,3.58
2023-11-27T10:41:41.700Z,2.78
2023-11-27T10:44:08.708Z,3.28
2023-11-27T10:46:35.353Z,2.63
2023-11-27T10:49:02.180Z,1.90
2023-11-27T10:51:30.780Z,2.95
2023-11-27T10:53:59.361Z,2.45
2023-11-27T10:56:28.151Z,2.70
2023-11-27T10:58:56.146Z,3.72
2023-11-27T11:01:28.936Z,2.70
2023-11-27T11:04:02.185Z,3.42
2023-11-27T11:06:29.219Z,3.25
2023-11-27T11:08:59.546Z,3.35
2023-11-27T11:11:26.634Z,3.20
2023-11-27T11:13:53.062Z,3.17
2023-11-27T11:16:32.228Z,2.85
2023-11-27T11:19:27.932Z,3.90
2023-11-27T11:22:32.068Z,3.83
2023-11-27T11:25:45.821Z,4.20
2023-11-27T11:28:22.193Z,3.60
2023-11-27T11:31:11.155Z,4.25
2023-11-27T11:33:37.582Z,3.08
2023-11-27T11:36:07.446Z,3.72
2023-11-27T11:38:33.825Z,3.05
2023-11-27T11:41:00.305Z,3.15
2023-11-27T11:43:27.998Z,2.83
2023-11-27T11:45:54.791Z,3.15
2023-11-27T11:48:35.373Z,4.15
2023-11-27T11:51:11.178Z,4.57
2023-11-27T11:53:38.049Z,4.45
2023-11-27T11:56:14.368Z,7.80
2023-11-27T11:58:41.183Z,12.13
2023-11-27T12:01:07.901Z,3.35
2023-11-27T12:03:34.881Z,3.65
2023-11-27T12:06:04.573Z,8.02
2023-11-27T12:08:31.901Z,3.25
2023-11-27T12:11:00.056Z,3.50
2023-11-27T12:13:28.054Z,3.05
2023-11-27T12:15:56.302Z,5.03
2023-11-27T12:18:23.506Z,3.13
2023-11-27T12:20:50.523Z,4.45
2023-11-27T12:23:17.188Z,8.90
2023-11-27T12:25:43.735Z,5.15
2023-11-27T12:28:13.728Z,3.17
2023-11-27T12:30:41.146Z,2.15
2023-11-27T12:33:09.668Z,2.15
2023-11-27T12:35:36.342Z,3.78
2023-11-27T12:38:04.556Z,3.17
2023-11-27T12:40:30.995Z,3.35
2023-11-27T12:42:57.800Z,3.05
2023-11-27T12:45:25.618Z,2.95
2023-11-27T12:47:52.636Z,2.63
2023-11-27T12:50:28.135Z,2.67
2023-11-27T12:52:59.076Z,3.15
2023-11-27T12:55:30.942Z,3.13
2023-11-27T12:57:57.860Z,2.15
2023-11-27T13:00:24.210Z,2.70
2023-11-27T13:02:50.672Z,2.47
2023-11-27T13:05:17.122Z,2.35
2023-11-27T13:07:43.574Z,2.60
2023-11-27T13:10:10.238Z,2.38
2023-11-27T13:12:36.919Z,2.97
2023-11-27T13:15:03.508Z,2.10
2023-11-27T13:17:30.068Z,3.40
2023-11-27T13:19:57.539Z,2.33
2023-11-27T13:22:25.512Z,1.92
2023-11-27T13:24:52.571Z,2.17
2023-11-27T13:27:19.265Z,2.28
2023-11-27T13:29:46.757Z,2.80
2023-11-27T13:32:15.058Z,2.10
2023-11-27T13:34:43.023Z,2.45
2023-11-27T13:37:09.895Z,3.22
2023-11-27T13:39:36.784Z,2.10
2023-11-27T13:42:04.274Z,2.28
2023-11-27T13:44:31.241Z,2.65
2023-11-27T13:46:57.940Z,2.55
2023-11-27T13:49:24.407Z,2.15
2023-11-27T13:51:50.781Z,2.65
2023-11-27T13:54:17.175Z,2.10
2023-11-27T13:56:43.571Z,3.00
2023-11-27T13:59:10.045Z,2.00
2023-11-27T14:01:36.663Z,2.67
2023-11-27T14:04:03.143Z,2.45
2023-11-27T14:06:29.595Z,2.65
2023-11-27T14:08:56.068Z,2.40
2023-11-27T14:11:31.799Z,1.98
2023-11-27T14:14:00.361Z,2.53
2023-11-27T14:16:27.494Z,3.33
2023-11-27T14:18:54.784Z,2.70
2023-11-27T14:21:21.546Z,2.80
2023-11-27T14:23:50.520Z,2.88
2023-11-27T14:26:17.659Z,3.40
2023-11-27T14:28:44.051Z,1.88
2023-11-27T14:31:11.167Z,2.72
2023-11-27T14:33:37.686Z,2.75
2023-11-27T14:36:04.223Z,2.70
2023-11-27T14:38:30.648Z,4.40
2023-11-27T14:40:57.060Z,3.65
2023-11-27T14:43:23.550Z,3.03
2023-11-27T14:45:50.247Z,3.72
2023-11-27T14:48:17.017Z,3.00
2023-11-27T14:50:43.697Z,6.00
2023-11-27T14:53:10.621Z,6.15
2023-11-27T14:55:38.426Z,4.28
2023-11-27T14:58:05.285Z,5.05
2023-11-27T15:00:34.849Z,4.05
2023-11-27T15:03:01.781Z,4.68
2023-11-27T15:05:28.399Z,4.57
2023-11-27T15:07:54.766Z,2.95
2023-11-27T15:10:21.273Z,3.03
2023-11-27T15:12:47.645Z,3.10
2023-11-27T15:15:14.009Z,4.00
2023-11-27T15:17:40.492Z,3.70
2023-11-27T15:20:07.500Z,4.65
2023-11-27T15:22:33.897Z,5.45
2023-11-27T15:25:00.330Z,4.07
2023-11-27T15:27:26.706Z,2.20
2023-11-27T15:29:53.289Z,3.08
2023-11-27T15:32:19.666Z,3.17
2023-11-27T15:34:46.075Z,3.42
2023-11-27T15:37:12.581Z,3.38
2023-11-27T15:39:38.948Z,3.15
2023-11-27T15:42:05.655Z,3.53
2023-11-27T15:44:32.033Z,2.83
2023-11-27T15:46:58.602Z,2.72
2023-11-27T15:49:25.028Z,3.00
2023-11-27T15:51:51.419Z,2.78
2023-11-27T15:54:17.861Z,9.05
2023-11-27T15:56:44.313Z,8.50
2023-11-27T15:59:10.688Z,10.40
2023-11-27T16:04:03.755Z,5.47
2023-11-27T16:06:30.174Z,3.78
2023-11-27T16:08:56.543Z,3.67
2023-11-27T16:11:22.954Z,2.80
2023-11-27T16:13:51.409Z,3.13
2023-11-27T16:16:19.155Z,3.67
2023-11-27T16:18:45.652Z,4.03
2023-11-27T16:21:12.470Z,3.28
2023-11-27T16:23:38.823Z,3.22
2023-11-27T16:26:05.525Z,3.17
2023-11-27T16:28:32.011Z,3.38
2023-11-27T16:30:58.439Z,3.97
2023-11-27T16:33:24.843Z,3.45
2023-11-27T16:35:51.197Z,3.65
2023-11-27T16:38:17.578Z,24.55
2023-11-27T16:40:44.238Z,18.98
2023-11-27T16:43:10.767Z,20.30
2023-11-27T16:45:37.148Z,6.00
2023-11-27T16:48:06.596Z,18.55
2023-11-27T16:50:34.324Z,6.07
2023-11-27T16:53:00.905Z,3.25
2023-11-27T16:55:29.604Z,2.45
2023-11-27T16:57:57.157Z,3.72
2023-11-27T17:00:24.362Z,3.00
2023-11-27T17:02:52.560Z,3.42
2023-11-27T17:05:19.240Z,10.25
2023-11-27T17:07:46.390Z,5.10
2023-11-27T17:10:14.368Z,3.78
2023-11-27T17:12:40.755Z,7.07
2023-11-27T17:15:07.729Z,7.20
2023-11-27T17:17:34.153Z,5.25
2023-11-27T17:20:00.615Z,5.28
2023-11-27T17:22:26.996Z,4.53
2023-11-27T17:24:53.361Z,4.97
2023-11-27T17:27:19.721Z,4.75
2023-11-27T17:29:46.075Z,3.53
2023-11-27T17:32:12.524Z,3.38
2023-11-27T17:34:38.960Z,4.10
2023-11-27T17:37:05.498Z,5.28
2023-11-27T17:39:31.873Z,3.97
2023-11-27T17:41:58.221Z,3.42
2023-11-27T17:44:24.596Z,2.83
2023-11-27T17:46:51.013Z,3.85
2023-11-27T17:49:17.475Z,3.85
2023-11-27T17:51:43.888Z,4.07
2023-11-27T17:54:10.260Z,4.05
2023-11-27T17:56:40.488Z,3.20
2023-11-27T17:59:08.377Z,2.60
2023-11-27T18:01:34.831Z,2.08
2023-11-27T18:04:01.234Z,4.07
2023-11-27T18:06:27.593Z,2.72
2023-11-27T18:08:53.974Z,3.08
2023-11-27T18:11:20.345Z,3.33
2023-11-27T18:13:46.775Z,2.75
2023-11-27T18:16:13.185Z,2.15
2023-11-27T18:18:39.581Z,2.25
2023-11-27T18:21:06.540Z,2.13
2023-11-27T18:23:33.047Z,2.63
2023-11-27T18:25:59.419Z,2.15
2023-11-27T18:28:25.803Z,1.65
2023-11-27T18:30:52.593Z,2.28
2023-11-27T18:33:18.967Z,2.58
2023-11-27T18:35:45.336Z,2.40
2023-11-27T18:38:11.783Z,1.85
2023-11-27T18:40:38.176Z,2.33
2023-11-27T18:43:04.535Z,1.67
2023-11-27T18:45:30.928Z,1.52
2023-11-27T18:47:57.317Z,2.42
2023-11-27T18:50:23.722Z,2.00
2023-11-27T18:52:50.325Z,3.75
2023-11-27T18:55:16.987Z,2.13
2023-11-27T18:57:43.446Z,2.40
2023-11-27T19:00:10.392Z,2.10
2023-11-27T19:02:36.923Z,2.08
2023-11-27T19:05:03.590Z,3.15
2023-11-27T19:07:30.005Z,3.08
2023-11-27T19:09:56.677Z,2.10
2023-11-27T19:12:23.288Z,2.47
2023-11-27T19:14:53.053Z,2.42
2023-11-27T19:17:20.637Z,2.80
2023-11-27T19:19:47.115Z,1.75
2023-11-27T19:22:13.522Z,2.97
2023-11-27T19:24:39.870Z,2.28
2023-11-27T19:27:06.259Z,1.67
2023-11-27T19:29:32.635Z,1.88
2023-11-27T19:31:59.166Z,2.97
2023-11-27T19:34:25.737Z,1.92
2023-11-27T19:36:54.531Z,1.90
2023-11-27T19:39:20.994Z,1.90
2023-11-27T19:41:51.003Z,2.15
2023-11-27T19:44:17.393Z,2.45
2023-11-27T19:46:43.900Z,2.22
2023-11-27T19:49:10.614Z,1.63
2023-11-27T19:51:37.268Z,1.88
2023-11-27T19:54:03.696Z,2.70
2023-11-27T19:56:30.088Z,2.00
2023-11-27T19:58:56.454Z,2.22
2023-11-27T20:01:22.857Z,2.45
2023-11-27T20:03:49.252Z,1.80
2023-11-27T20:06:15.677Z,1.80
2023-11-27T20:08:42.052Z,2.17
2023-11-27T20:11:08.572Z,2.28
2023-11-27T20:13:35.008Z,1.80
2023-11-27T20:16:01.387Z,1.65
2023-11-27T20:18:27.882Z,2.78
2023-11-27T20:20:54.274Z,2.30
2023-11-27T20:23:20.647Z,1.98
2023-11-27T20:25:48.034Z,2.00
2023-11-27T20:28:14.452Z,2.22
2023-11-27T20:30:40.810Z,2.75
2023-11-27T20:33:07.251Z,3.40
2023-11-27T20:35:33.634Z,2.38
2023-11-27T20:38:00.704Z,3.50
2023-11-27T20:40:27.155Z,1.92
2023-11-27T20:42:53.707Z,3.00
2023-11-27T20:45:20.062Z,2.72
2023-11-27T20:47:46.578Z,1.83
2023-11-27T20:50:13.078Z,1.85
2023-11-27T20:52:39.825Z,2.97
2023-11-27T20:55:08.425Z,2.50
2023-11-27T20:57:35.737Z,2.42
2023-11-27T21:00:02.440Z,2.30
2023-11-27T21:02:28.910Z,2.25
2023-11-27T21:04:55.412Z,2.03
2023-11-27T21:07:21.818Z,1.80
2023-11-27T21:09:48.181Z,2.05
2023-11-27T21:12:14.545Z,2.03
2023-11-27T21:14:40.900Z,1.80
2023-11-27T21:17:07.363Z,2.00
2023-11-27T21:19:33.820Z,2.33
2023-11-27T21:22:00.254Z,1.60
2023-11-27T21:24:26.628Z,1.70
2023-11-27T21:26:53.013Z,2.08
2023-11-27T21:29:19.395Z,2.00
2023-11-27T21:34:12.307Z,1.75
2023-11-27T21:36:38.675Z,2.50
2023-11-27T21:39:05.087Z,2.28
2023-11-27T21:41:31.554Z,1.73
2023-11-27T21:43:58.099Z,2.38
2023-11-27T21:46:24.594Z,1.70
2023-11-27T21:48:50.999Z,2.58
2023-11-27T21:51:18.426Z,2.05
2023-11-27T21:53:44.795Z,1.65
2023-11-27T21:56:11.501Z,2.50
2023-11-27T21:58:37.914Z,1.65
2023-11-27T22:01:16.467Z,1.83
2023-11-27T22:03:44.521Z,2.00
2023-11-27T22:06:11.205Z,1.85
2023-11-27T22:08:37.609Z,1.90
2023-11-27T22:11:04.198Z,1.58
2023-11-27T22:13:30.655Z,1.60
2023-11-27T22:15:57.161Z,1.58
2023-11-27T22:18:23.553Z,1.63
2023-11-27T22:20:49.925Z,1.70
2023-11-27T22:23:16.286Z,2.03
2023-11-27T22:25:42.693Z,1.60
2023-11-27T22:28:09.054Z,1.65
2023-11-27T22:30:37.190Z,1.73
2023-11-27T22:33:03.662Z,1.75
2023-11-27T22:35:30.024Z,1.70
2023-11-27T22:37:56.421Z,1.83
2023-11-27T22:40:22.919Z,1.65
2023-11-27T22:42:49.301Z,2.20
2023-11-27T22:45:15.794Z,1.73
2023-11-27T22:47:42.571Z,1.55
2023-11-27T22:50:09.818Z,1.73
2023-11-27T22:52:36.232Z,1.75
2023-11-27T22:55:03.282Z,1.65
2023-11-27T22:57:29.679Z,1.52
2023-11-27T22:59:56.154Z,2.17
2023-11-27T23:02:22.773Z,1.50
2023-11-27T23:04:49.331Z,2.17
2023-11-27T23:07:15.882Z,2.28
2023-11-27T23:09:42.288Z,1.80
2023-11-27T23:12:08.708Z,2.13
2023-11-27T23:14:35.090Z,1.83
2023-11-27T23:17:01.527Z,2.22
2023-11-27T23:19:27.929Z,2.17
2023-11-27T23:21:54.383Z,1.85
2023-11-27T23:24:26.630Z,1.52
2023-11-27T23:26:54.747Z,1.90
2023-11-27T23:29:21.283Z,2.13
2023-11-27T23:31:47.670Z,1.67
2023-11-27T23:34:14.052Z,1.95
2023-11-27T23:36:40.439Z,1.45
2023-11-27T23:39:06.815Z,1.80
2023-11-27T23:41:33.190Z,1.88
2023-11-27T23:43:59.608Z,1.70
2023-11-27T23:46:26.075Z,1.92
2023-11-27T23:48:54.148Z,2.22
2023-11-27T23:51:20.841Z,2.22
2023-11-27T23:53:47.216Z,1.92
2023-11-27T23:56:13.645Z,2.13
2023-11-27T23:58:40.027Z,1.80
